ADDS METAR Data INFO
IDs: Format: Raw Decoded Include TAF

Data at: 1526 UTC 18 Jun 2018

K6A1 181515Z AUTO 36005KT 10SM 29/22 A3017 RMK AO2 T02890217
K6A1 181455Z AUTO 02005KT 10SM 28/22 A3017 RMK AO2 6//// T02840217
K6A1 181435Z AUTO 36005KT 10SM 28/22 A3017 RMK AO2 T02780218
K6A1 181415Z AUTO 33004KT 10SM 27/22 A3017 RMK AO2 T02710217
K6A1 181350Z AUTO 32003KT 10SM 27/22 A3018 RMK AO2 T02650216
K6A1 181335Z AUTO 00000KT 10SM 26/22 A3018 RMK AO2 T02600216
K6A1 181315Z AUTO 00000KT 10SM 26/22 A3017 RMK AO2 T02560218
K6A1 181255Z AUTO 00000KT 10SM 25/22 A3017 RMK AO2 T02510219
K6A1 181235Z AUTO 00000KT 10SM 25/22 A3017 RMK AO2 T02450219
K6A1 181215Z AUTO 00000KT 10SM 24/22 A3016 RMK AO2 T02390216
K6A1 181155Z AUTO 00000KT 10SM 24/22 A3016 RMK AO2 T02350221 10235 20220
K6A1 181135Z AUTO 00000KT 10SM 23/23 A3016 RMK AO2 T02300225
K6A1 181115Z AUTO 00000KT 7SM 23/22 A3015 RMK AO2 T02260222
K6A1 181055Z AUTO 00000KT 7SM 22/22 A3016 RMK AO2 T02220218
K6A1 181035Z AUTO 32003KT 7SM 22/22 A3015 RMK AO2 T02210217
K6A1 181015Z AUTO 34003KT 7SM 22/22 A3015 RMK AO2 T02200216
K6A1 180955Z AUTO 00000KT 2 1/2SM BR 22/22 A3015 RMK AO2 T02200216
K6A1 180935Z AUTO 00000KT 10SM 22/22 A3014 RMK AO2 T02220219
K6A1 180915Z AUTO 31003KT 10SM 23/22 A3014 RMK AO2 T02250220
K6A1 180855Z AUTO 28004KT 10SM 23/22 A3013 RMK AO2 T02250220
K6A1 180835Z AUTO 00000KT 10SM 23/22 A3013 RMK AO2 T02250220
K6A1 180815Z AUTO 29003KT 10SM 23/22 A3013 RMK AO2 T02250220
K6A1 180755Z AUTO 27004KT 10SM 22/22 A3012 RMK AO2 T02240219
K6A1 180735Z AUTO 26004KT 10SM 23/22 A3012 RMK AO2 T02250219
K6A1 180715Z AUTO 26005KT 10SM 23/22 A3012 RMK AO2 T02250220
K6A1 180655Z AUTO 26004KT 10SM 23/22 A3012 RMK AO2 T02260220
K6A1 180635Z AUTO 25003KT 10SM 23/22 A3013 RMK AO2 T02250220
K6A1 180615Z AUTO 25005KT 10SM 23/22 A3013 RMK AO2 T02270221
K6A1 180555Z AUTO 25005KT 10SM 23/22 A3013 RMK AO2 T02300221 10260 20230 403000225
K6A1 180535Z AUTO 00000KT 10SM 23/22 A3014 RMK AO2 T02330223
K6A1 180515Z AUTO 29003KT 10SM 24/22 A3015 RMK AO2 T02350221
K6A1 180455Z AUTO 28004KT 10SM 24/22 A3015 RMK AO2 T02350222
K6A1 180435Z AUTO 26005KT 10SM 24/22 A3015 RMK AO2 T02350222
K6A1 180415Z AUTO 00000KT 10SM 24/23 A3016 RMK AO2 T02370225
K6A1 180355Z AUTO 00000KT 10SM 24/23 A3016 RMK AO2 T02410225
K6A1 180335Z AUTO 00000KT 10SM 25/23 A3016 RMK AO2 T02450225
K6A1 180315Z AUTO 27003KT 10SM 25/23 A3016 RMK AO2 T02490227
K6A1 180255Z AUTO 28004KT 10SM 25/23 A3016 RMK AO2 T02510229
K6A1 180235Z AUTO 27003KT 10SM 25/23 A3016 RMK AO2 T02520231
K6A1 180215Z AUTO 29003KT 10SM 26/23 A3015 RMK AO2 T02560230
K6A1 180155Z AUTO 29003KT 10SM 26/23 A3014 RMK AO2 T02570234
K6A1 180135Z AUTO 00000KT 10SM 25/24 A3013 RMK AO2 T02510241
K6A1 180115Z AUTO 00000KT 10SM 26/24 A3013 RMK AO2 T02550244
K6A1 180055Z AUTO 22003KT 10SM 25/24 A3013 RMK AO2 LTG DSNT NE T02530240
K6A1 180035Z AUTO 00000KT 10SM 26/24 A3012 RMK AO2 T02570241
K6A1 180015Z AUTO 17003KT 10SM 26/24 A3012 RMK AO2 T02590238
K6A1 172355Z AUTO 07004KT 2SM -RA 26/24 A3012 RMK AO2 T02550235 10300 20245
K6A1 172335Z AUTO 14008KT 10SM -RA 28/23 A3012 RMK AO2 T02770230
K6A1 172315Z AUTO 05003KT 10SM 29/22 A3011 RMK AO2 T02910219
K6A1 172255Z AUTO 00000KT 10SM 29/22 A3011 RMK AO2 T02920219
K6A1 172235Z AUTO 00000KT 10SM 29/22 A3010 RMK AO2 T02890217
K6A1 172215Z AUTO 00000KT 10SM 30/22 A3011 RMK AO2 T02970223
K6A1 172155Z AUTO 00000KT 10SM 28/22 A3011 RMK AO2 T02840223
K6A1 172135Z AUTO 03003KT 10SM 29/22 A3011 RMK AO2 T02850223
K6A1 172115Z AUTO 01004KT 10SM 28/22 A3012 RMK AO2 T02840224
K6A1 172055Z AUTO 00000KT 10SM 28/22 A3012 RMK AO2 T02780220
K6A1 172035Z AUTO 05003KT 10SM 29/22 A3012 RMK AO2 T02870223
K6A1 172015Z AUTO 23003KT 10SM 28/22 A3013 RMK AO2 T02760221
K6A1 171955Z AUTO 00000KT 10SM 27/22 A3014 RMK AO2 T02690220
K6A1 171935Z AUTO 27003KT 10SM 26/22 A3015 RMK AO2 T02600223
K6A1 171915Z AUTO 31004KT 10SM 26/22 A3015 RMK AO2 LTG DSNT E T02550223
K6A1 171855Z AUTO 26007KT 10SM 25/23 A3016 RMK AO2 T02500225
K6A1 171835Z AUTO 28007KT 10SM 25/22 A3017 RMK AO2 T02450224
K6A1 171815Z AUTO 00000KT 10SM 25/23 A3017 RMK AO2 T02510226
K6A1 171755Z AUTO 06003KT 10SM 25/23 A3017 RMK AO2 T02530231 10260 20230
K6A1 171735Z AUTO 05004KT 10SM 26/23 A3017 RMK AO2 LTG DSNT E SE AND W T02580227
K6A1 171715Z AUTO 30006KT 10SM 25/23 A3017 RMK AO2 T02460234
K6A1 171655Z AUTO 00000KT 10SM -DZ 24/23 A3018 RMK AO2 LTG DSNT E AND W T02380227
K6A1 171635Z AUTO 25004KT 10SM RA 24/23 A3018 RMK AO2 LTG DSNT E AND W T02360228
K6A1 171615Z AUTO 26005KT 7SM -RA 23/23 A3018 RMK AO2 LTG DSNT W AND NW T02320226
K6A1 171555Z AUTO 24004KT 7SM RA 23/22 A3020 RMK AO2 LTG DSNT W T02310224
K6A1 171535Z AUTO 26003KT 5SM VCTSRA 23/22 A3020 RMK AO2 LTG DSNT W T02310223
K6A1 171515Z AUTO 25003KT 10SM VCTSRA 23/22 A3020 RMK AO2 LTG DSNT ALQS T02320222
K6A1 171455Z AUTO 00000KT 10SM -TSRA 23/22 A3017 RMK AO2 LTG DSNT ALQS T02310223
K6A1 171435Z AUTO 26003KT 10SM -VCTSRA 23/22 A3018 RMK AO2 LTG DSNT ALQS T02320221
K6A1 171415Z AUTO 00000KT 10SM -VCTSRA 23/22 A3019 RMK AO2 LTG DSNT ALQS T02330220
K6A1 171355Z AUTO 23003KT 10SM TSRA 24/22 A3018 RMK AO2 LTG DSNT ALQS T02400216
K6A1 171335Z AUTO 26004KT 10SM VCTS 24/22 A3018 RMK AO2 LTG DSNT SE THRU W T02400218
K6A1 171315Z AUTO 25003KT 10SM VCTS 24/22 A3017 RMK AO2 LTG DSNT SE THRU W T02400220
K6A1 171255Z AUTO 25004KT 10SM TS 24/22 A3017 RMK AO2 LTG DSNT SE THRU W T02410219
K6A1 171235Z AUTO 24006KT 10SM VCTS 24/22 A3016 RMK AO2 LTG DSNT SE THRU W T02400220
K6A1 171215Z AUTO 27004KT 10SM TS 24/23 A3015 RMK AO2 LTG DSNT SE THRU W T02420225
K6A1 171155Z AUTO 23005KT 10SM VCTS 24/22 A3013 RMK AO2 LTG DSNT SE THRU SW T02390224 10239 20225
K6A1 171135Z AUTO 22004KT 10SM 23/23 A3013 RMK AO2 LTG DSNT SE THRU W T02330225
K6A1 171115Z AUTO 20004KT 10SM 23/22 A3012 RMK AO2 LTG DSNT S THRU W T02310223
K6A1 171055Z AUTO 27003KT 10SM 23/22 A3012 RMK AO2 LTG DSNT SW AND W T02300222
K6A1 171035Z AUTO 19003KT 10SM 23/22 A3011 RMK AO2 LTG DSNT SW AND W T02300221
K6A1 171015Z AUTO 00000KT 10SM -RA 23/22 A3011 RMK AO2 LTG DSNT SW AND W T02300222
K6A1 170955Z AUTO 00000KT 10SM 23/22 A3011 RMK AO2 LTG DSNT W T02300220
K6A1 170935Z AUTO 00000KT 10SM 23/22 A3010 RMK AO2 T02310220
K6A1 170915Z AUTO 00000KT 10SM 23/22 A3011 RMK AO2 T02310220
K6A1 170855Z AUTO 00000KT 10SM 23/22 A3010 RMK AO2 T02300219
K6A1 170835Z AUTO 00000KT 10SM 23/22 A3010 RMK AO2 T02290219
K6A1 170815Z AUTO 00000KT 10SM 23/22 A3010 RMK AO2 T02280219
K6A1 170755Z AUTO 00000KT 10SM 23/22 A3010 RMK AO2 T02280217
K6A1 170735Z AUTO 04005KT 10SM 23/22 A3010 RMK AO2 T02290218
K6A1 170715Z AUTO 00000KT 10SM 23/22 A3010 RMK AO2 T02280217
K6A1 170655Z AUTO 23004KT 10SM 23/22 A3009 RMK AO2 T02260215
K6A1 170635Z AUTO 22005KT 10SM 23/22 A3009 RMK AO2 T02250215
K6A1 170615Z AUTO 23006KT 10SM 23/22 A3009 RMK AO2 T02260215
K6A1 170555Z AUTO 23006KT 10SM 23/21 A3010 RMK AO2 T02280212 10276 20227 403160221
K6A1 170535Z AUTO 22007KT 10SM 23/22 A3009 RMK AO2 T02300215
K6A1 170515Z AUTO 22006KT 10SM 23/22 A3010 RMK AO2 T02290215
K6A1 170455Z AUTO 23003KT 10SM 23/22 A3012 RMK AO2 T02290215
K6A1 170435Z AUTO 00000KT 10SM 23/22 A3012 RMK AO2 T02330217
K6A1 170415Z AUTO 00000KT 10SM 24/22 A3012 RMK AO2 T02360216
K6A1 170355Z AUTO 00000KT 10SM 24/22 A3012 RMK AO2 T02400215
K6A1 170335Z AUTO 00000KT 10SM 24/22 A3013 RMK AO2 T02430215